Time;durP1;ratioP1;P1;durP2;ratioP2;P2;SDS_P1;SDS_P2;PMS_P1;PMS_P2;Temp;Humidity;BMP_temperature;BMP_pressure;BME280_temperature;BME280_humidity;BME280_pressure;Samples;Min_cycle;Max_cycle;Signal;HPM_P1;HPM_P2
2023/07/15 00:00:37;;;;;;;1.98;1.10;;;24.30;76.80;;;;;;5053358;28;20021;-52
2023/07/15 00:03:03;;;;;;;3.15;1.35;;;24.30;76.90;;;;;;5053144;28;20473;-53
2023/07/15 00:05:35;;;;;;;1.73;1.20;;;24.20;77.20;;;;;;5053127;28;20158;-52
2023/07/15 00:08:01;;;;;;;2.75;1.17;;;24.20;77.30;;;;;;5052975;28;20114;-52
2023/07/15 00:10:27;;;;;;;2.78;1.25;;;24.20;77.40;;;;;;5053240;28;20072;-52
2023/07/15 00:12:53;;;;;;;1.63;1.08;;;24.10;77.40;;;;;;5052458;28;20064;-50
2023/07/15 00:15:18;;;;;;;4.07;1.45;;;24.10;77.60;;;;;;5053163;28;20112;-51
2023/07/15 00:17:44;;;;;;;4.93;1.65;;;24.00;78.00;;;;;;5053450;28;20041;-52
2023/07/15 00:20:14;;;;;;;4.03;1.42;;;24.00;78.10;;;;;;5053017;28;20029;-52
2023/07/15 00:22:43;;;;;;;3.30;1.48;;;24.00;78.30;;;;;;5052896;28;20103;-51
2023/07/15 00:25:20;;;;;;;3.78;1.30;;;24.00;78.50;;;;;;5052855;28;20025;-52
2023/07/15 00:27:47;;;;;;;2.78;1.42;;;23.90;78.50;;;;;;5053136;28;20155;-50
2023/07/15 00:30:15;;;;;;;5.57;1.50;;;23.90;78.60;;;;;;5038129;28;20537;-52
2023/07/15 00:32:41;;;;;;;2.70;1.45;;;23.90;78.80;;;;;;5057462;28;20084;-52
2023/07/15 00:35:28;;;;;;;2.70;1.30;;;23.80;79.00;;;;;;5022388;28;20040;-52
2023/07/15 00:38:00;;;;;;;2.10;1.20;;;23.80;79.10;;;;;;5038772;28;20035;-52
2023/07/15 00:40:27;;;;;;;2.17;1.30;;;23.80;79.20;;;;;;5038869;28;20029;-49
2023/07/15 00:43:30;;;;;;;4.55;1.73;;;23.70;79.20;;;;;;5056652;28;20044;-51
2023/07/15 00:46:18;;;;;;;4.20;1.20;;;23.70;79.40;;;;;;5039135;28;20485;-50
2023/07/15 00:49:22;;;;;;;3.13;1.30;;;23.60;79.60;;;;;;5039042;28;20032;-52
2023/07/15 00:52:09;;;;;;;2.60;1.33;;;23.60;79.80;;;;;;5039170;28;20036;-52
2023/07/15 00:54:44;;;;;;;4.18;1.58;;;23.60;80.20;;;;;;5039061;28;20029;-52
2023/07/15 00:57:13;;;;;;;3.40;1.27;;;23.60;80.50;;;;;;5039489;28;20035;-52
2023/07/15 00:59:41;;;;;;;4.18;1.73;;;23.60;80.10;;;;;;5039707;28;20545;-51
2023/07/15 01:02:09;;;;;;;4.10;1.40;;;23.60;80.10;;;;;;5038854;28;20037;-50
2023/07/15 01:04:35;;;;;;;2.33;1.47;;;23.60;80.10;;;;;;5038555;28;20117;-52
2023/07/15 01:07:02;;;;;;;6.10;1.40;;;23.70;80.00;;;;;;5056602;28;20069;-53
2023/07/15 01:09:28;;;;;;;3.58;1.33;;;23.70;80.80;;;;;;5039474;28;20127;-52
2023/07/15 01:11:54;;;;;;;2.30;1.30;;;23.60;79.70;;;;;;5038824;28;20060;-51
2023/07/15 01:14:20;;;;;;;2.92;1.20;;;23.60;79.80;;;;;;5056297;28;20111;-52
2023/07/15 01:16:47;;;;;;;2.60;1.50;;;23.70;79.60;;;;;;5056906;28;20056;-52
2023/07/15 01:19:19;;;;;;;5.18;1.50;;;23.70;79.70;;;;;;5038703;28;20029;-50
2023/07/15 01:21:49;;;;;;;6.30;1.60;;;23.70;80.10;;;;;;5038712;28;20090;-52
2023/07/15 01:24:15;;;;;;;2.17;1.10;;;23.70;80.40;;;;;;5056309;28;20101;-52
2023/07/15 01:26:41;;;;;;;2.38;1.50;;;23.80;80.30;;;;;;5038370;28;20482;-53
2023/07/15 01:29:07;;;;;;;4.22;1.45;;;23.80;80.40;;;;;;5038224;28;20118;-53
2023/07/15 01:31:34;;;;;;;3.75;1.20;;;23.80;79.70;;;;;;5038322;28;20537;-53
2023/07/15 01:34:00;;;;;;;4.03;1.40;;;23.80;80.00;;;;;;5055664;28;20064;-52
2023/07/15 01:36:26;;;;;;;3.30;1.30;;;23.80;80.00;;;;;;5038378;28;20025;-52
2023/07/15 01:38:52;;;;;;;3.08;1.30;;;23.80;80.00;;;;;;5038033;28;20025;-52
2023/07/15 01:41:18;;;;;;;3.78;1.17;;;23.70;80.20;;;;;;5055913;28;20025;-52
2023/07/15 01:43:44;;;;;;;3.72;1.38;;;23.70;80.40;;;;;;5037478;28;20040;-52
2023/07/15 01:46:10;;;;;;;2.33;1.40;;;23.70;80.50;;;;;;5037753;28;20076;-48
2023/07/15 01:48:36;;;;;;;2.55;1.50;;;23.60;80.30;;;;;;5055757;28;20029;-51
2023/07/15 01:51:02;;;;;;;3.13;1.58;;;23.60;80.30;;;;;;5055790;28;20028;-53
2023/07/15 01:53:27;;;;;;;3.42;1.60;;;23.60;80.30;;;;;;5055528;28;20397;-52
2023/07/15 01:55:53;;;;;;;3.88;1.50;;;23.50;80.50;;;;;;5037720;28;20021;-51
2023/07/15 01:58:20;;;;;;;4.05;1.60;;;23.50;80.60;;;;;;5037973;28;20021;-51
2023/07/15 02:00:46;;;;;;;3.10;1.42;;;23.50;80.70;;;;;;5038126;28;20046;-49
2023/07/15 02:03:12;;;;;;;3.72;1.20;;;23.50;80.90;;;;;;5037769;28;20052;-53
2023/07/15 02:05:38;;;;;;;4.03;1.50;;;23.50;81.00;;;;;;5021386;28;20538;-47
2023/07/15 02:08:04;;;;;;;2.15;1.42;;;23.40;81.20;;;;;;5055973;28;20082;-48
2023/07/15 02:10:31;;;;;;;2.53;1.30;;;23.40;81.30;;;;;;5038492;28;20036;-51
2023/07/15 02:12:57;;;;;;;2.40;1.27;;;23.40;81.10;;;;;;5055321;28;20459;-49
2023/07/15 02:15:23;;;;;;;4.60;1.40;;;23.40;81.20;;;;;;5037980;28;20021;-46
2023/07/15 02:17:50;;;;;;;2.75;1.10;;;23.40;81.40;;;;;;5055642;28;20096;-47
2023/07/15 02:20:15;;;;;;;2.80;1.70;;;23.30;81.40;;;;;;5038162;28;20071;-47
2023/07/15 02:22:42;;;;;;;2.72;1.40;;;23.30;81.50;;;;;;5055693;28;20120;-47
2023/07/15 02:25:08;;;;;;;3.42;1.50;;;23.30;81.70;;;;;;5055232;28;20033;-47
2023/07/15 02:27:34;;;;;;;2.70;1.30;;;23.30;82.10;;;;;;5037808;28;20071;-47
2023/07/15 02:29:59;;;;;;;2.63;1.10;;;23.20;82.10;;;;;;5037814;28;20053;-51
2023/07/15 02:32:39;;;;;;;3.17;1.42;;;23.20;82.20;;;;;;5055270;28;20025;-47
2023/07/15 02:35:11;;;;;;;1.52;1.10;;;23.20;82.40;;;;;;5037744;28;20025;-46
2023/07/15 02:37:41;;;;;;;3.70;1.55;;;23.10;82.40;;;;;;5055599;28;20496;-50
2023/07/15 02:40:10;;;;;;;1.65;1.17;;;23.10;82.90;;;;;;5037113;28;20033;-47
2023/07/15 02:42:36;;;;;;;3.08;1.30;;;23.10;82.80;;;;;;5054849;28;20076;-48
2023/07/15 02:45:06;;;;;;;4.63;1.60;;;23.00;83.30;;;;;;5036779;28;20037;-49
2023/07/15 02:47:32;;;;;;;2.33;1.30;;;23.00;83.50;;;;;;5054977;28;20028;-48
2023/07/15 02:50:00;;;;;;;2.90;1.30;;;22.90;83.80;;;;;;5055474;28;20033;-48
2023/07/15 02:52:26;;;;;;;3.08;1.38;;;22.90;84.00;;;;;;5054255;28;20509;-47
2023/07/15 02:54:51;;;;;;;2.58;1.20;;;22.90;83.90;;;;;;5055123;28;20029;-49
2023/07/15 02:57:17;;;;;;;3.08;1.30;;;22.80;84.10;;;;;;5055079;28;20065;-50
2023/07/15 02:59:43;;;;;;;5.15;1.40;;;22.80;84.10;;;;;;5054910;28;20120;-50
2023/07/15 03:02:10;;;;;;;2.28;1.20;;;22.80;84.30;;;;;;5054575;28;20032;-48
2023/07/15 03:04:37;;;;;;;1.70;1.10;;;22.80;84.30;;;;;;5036339;28;20032;-48
2023/07/15 03:07:03;;;;;;;4.47;1.50;;;22.70;84.30;;;;;;5037181;28;20087;-50
2023/07/15 03:09:28;;;;;;;2.20;1.20;;;22.70;84.40;;;;;;5036517;28;20033;-48
2023/07/15 03:11:54;;;;;;;2.50;1.20;;;22.70;84.50;;;;;;5054505;28;20033;-47
2023/07/15 03:14:19;;;;;;;1.98;1.20;;;22.60;84.80;;;;;;5036386;28;20469;-50
2023/07/15 03:16:45;;;;;;;2.65;1.48;;;22.50;84.90;;;;;;5053884;28;20024;-48
2023/07/15 03:19:12;;;;;;;3.15;1.27;;;22.50;84.90;;;;;;5054040;28;20260;-47
2023/07/15 03:21:38;;;;;;;2.75;1.45;;;22.40;84.90;;;;;;5036072;28;20025;-51
2023/07/15 03:24:05;;;;;;;2.35;1.30;;;22.40;85.10;;;;;;5036611;28;20079;-49
2023/07/15 03:26:30;;;;;;;2.63;1.33;;;22.40;85.30;;;;;;5054194;28;20410;-51
2023/07/15 03:28:57;;;;;;;3.47;1.70;;;22.30;85.50;;;;;;5054238;28;20079;-50
2023/07/15 03:31:23;;;;;;;4.13;1.50;;;22.30;85.50;;;;;;5036436;28;20032;-52
2023/07/15 03:33:51;;;;;;;4.38;1.45;;;22.30;85.50;;;;;;5036020;28;20374;-51
2023/07/15 03:36:17;;;;;;;2.75;1.45;;;22.30;85.50;;;;;;5053796;28;20025;-49
2023/07/15 03:38:43;;;;;;;2.90;1.45;;;22.20;85.90;;;;;;5054479;28;20416;-51
2023/07/15 03:41:09;;;;;;;2.97;1.23;;;22.20;85.80;;;;;;5053265;28;20021;-49
2023/07/15 03:43:35;;;;;;;3.78;1.38;;;22.30;86.10;;;;;;5035577;28;20033;-51
2023/07/15 03:46:00;;;;;;;3.83;1.20;;;22.30;85.80;;;;;;5052898;28;20037;-53
2023/07/15 03:48:26;;;;;;;2.40;1.30;;;22.30;85.80;;;;;;5053596;28;20029;-51
2023/07/15 03:50:52;;;;;;;1.40;1.02;;;22.40;85.90;;;;;;5053805;28;20028;-52
2023/07/15 03:53:18;;;;;;;2.15;1.20;;;22.30;85.70;;;;;;5053327;28;20436;-50
2023/07/15 03:55:43;;;;;;;3.00;1.30;;;22.30;86.00;;;;;;5053671;28;20111;-52
2023/07/15 03:58:09;;;;;;;2.40;1.30;;;22.30;86.10;;;;;;5053727;28;20075;-50
2023/07/15 04:00:34;;;;;;;2.30;1.00;;;22.30;86.20;;;;;;5053481;28;20052;-50
2023/07/15 04:03:00;;;;;;;4.35;1.13;;;22.30;86.30;;;;;;5052926;28;20020;-52
2023/07/15 04:05:26;;;;;;;1.58;1.00;;;22.30;86.30;;;;;;5052950;28;20474;-52
2023/07/15 04:07:53;;;;;;;2.20;1.40;;;22.30;86.60;;;;;;5053291;28;20025;-52
2023/07/15 04:10:19;;;;;;;6.80;1.60;;;22.40;86.50;;;;;;5053303;28;20033;-50
2023/07/15 04:12:45;;;;;;;2.03;1.30;;;22.40;86.50;;;;;;5053013;28;20044;-52
2023/07/15 04:15:10;;;;;;;2.55;1.27;;;22.40;86.70;;;;;;5053312;28;20031;-52
2023/07/15 04:17:36;;;;;;;2.92;1.50;;;22.30;86.80;;;;;;5053165;28;20393;-52
2023/07/15 04:20:08;;;;;;;2.70;1.27;;;22.40;87.00;;;;;;5053410;28;20059;-51
2023/07/15 04:22:37;;;;;;;4.00;1.40;;;22.40;86.90;;;;;;5053301;28;20052;-52
2023/07/15 04:25:03;;;;;;;3.13;1.50;;;22.30;86.60;;;;;;5053194;28;20037;-51
2023/07/15 04:27:29;;;;;;;2.10;1.25;;;22.40;86.70;;;;;;5053836;28;20025;-51
2023/07/15 04:29:55;;;;;;;3.42;1.48;;;22.30;87.10;;;;;;5053168;28;20075;-51
2023/07/15 04:32:20;;;;;;;3.13;1.38;;;22.30;86.70;;;;;;5053052;28;20053;-50
2023/07/15 04:34:50;;;;;;;2.83;1.30;;;22.30;86.90;;;;;;5053144;28;20033;-50
2023/07/15 04:37:16;;;;;;;3.95;1.83;;;22.30;87.30;;;;;;5053061;28;20056;-48
2023/07/15 04:39:42;;;;;;;3.78;1.42;;;22.30;87.40;;;;;;5052985;28;20021;-52
2023/07/15 04:42:07;;;;;;;3.22;1.65;;;22.40;87.20;;;;;;5052917;28;20025;-51
2023/07/15 04:44:33;;;;;;;4.38;2.15;;;22.30;87.10;;;;;;5052780;28;20024;-49
2023/07/15 04:46:58;;;;;;;3.53;1.80;;;22.40;87.70;;;;;;5052660;28;20033;-51
2023/07/15 04:49:24;;;;;;;2.20;1.10;;;22.40;87.50;;;;;;5052597;28;20032;-50
2023/07/15 04:51:50;;;;;;;15.05;7.68;;;22.40;87.70;;;;;;5052578;28;20029;-52
2023/07/15 04:54:15;;;;;;;10.52;6.55;;;22.40;88.20;;;;;;5034860;28;20067;-51
2023/07/15 04:56:42;;;;;;;4.18;1.83;;;22.40;88.30;;;;;;5053045;28;20393;-51
2023/07/15 04:59:08;;;;;;;2.42;1.40;;;22.40;87.90;;;;;;5052754;28;20029;-48
2023/07/15 05:01:34;;;;;;;4.00;2.05;;;22.50;88.00;;;;;;5052817;28;20025;-48
2023/07/15 05:04:01;;;;;;;1.83;1.33;;;22.50;88.10;;;;;;5052731;28;20029;-51
2023/07/15 05:06:30;;;;;;;2.80;1.30;;;22.50;88.00;;;;;;5053051;28;20136;-52
2023/07/15 05:08:55;;;;;;;2.55;1.20;;;22.60;87.90;;;;;;5052737;28;20374;-50
2023/07/15 05:11:21;;;;;;;6.60;2.17;;;22.60;88.00;;;;;;5052901;28;20075;-51
2023/07/15 05:13:47;;;;;;;1.63;1.10;;;22.60;88.40;;;;;;5052342;28;20033;-52
2023/07/15 05:16:14;;;;;;;8.80;4.88;;;22.60;88.10;;;;;;5055546;28;20036;-51
2023/07/15 05:18:40;;;;;;;2.63;1.50;;;22.70;88.10;;;;;;5056406;28;20079;-52
2023/07/15 05:21:06;;;;;;;2.50;1.33;;;22.70;88.00;;;;;;5057316;28;20025;-47
2023/07/15 05:23:33;;;;;;;3.05;1.50;;;22.70;88.10;;;;;;5056714;28;20052;-50
2023/07/15 05:25:59;;;;;;;12.02;5.70;;;22.80;88.00;;;;;;5056753;28;20033;-52
2023/07/15 05:28:30;;;;;;;2.95;1.42;;;22.80;88.50;;;;;;5038683;28;20093;-47
2023/07/15 05:31:03;;;;;;;2.05;1.10;;;22.80;88.10;;;;;;5056228;28;20359;-51
2023/07/15 05:33:29;;;;;;;2.53;1.27;;;22.90;88.10;;;;;;5056008;28;20437;-47
2023/07/15 05:35:55;;;;;;;7.00;2.92;;;22.90;88.20;;;;;;5056100;28;20108;-52
2023/07/15 05:38:25;;;;;;;2.03;1.10;;;23.00;87.80;;;;;;5056561;28;20044;-51
2023/07/15 05:40:55;;;;;;;2.85;1.15;;;23.10;87.80;;;;;;5056548;28;20037;-52
2023/07/15 05:43:21;;;;;;;3.78;2.05;;;23.10;88.30;;;;;;5055354;28;20028;-50
2023/07/15 05:45:47;;;;;;;7.60;4.10;;;23.10;88.50;;;;;;5055757;28;20111;-49
2023/07/15 05:48:13;;;;;;;3.72;1.88;;;23.20;88.70;;;;;;5055765;28;20552;-51
2023/07/15 05:50:39;;;;;;;3.95;1.90;;;23.30;88.10;;;;;;5055936;28;20029;-51
2023/07/15 05:53:05;;;;;;;5.82;2.42;;;23.40;88.00;;;;;;5055366;28;20466;-50
2023/07/15 05:55:33;;;;;;;3.80;1.75;;;23.40;88.00;;;;;;5055726;28;20477;-51
2023/07/15 05:58:00;;;;;;;5.55;2.92;;;23.50;87.70;;;;;;5055793;28;20079;-50
2023/07/15 06:00:26;;;;;;;3.05;1.38;;;23.50;87.60;;;;;;5037888;28;20036;-49
2023/07/15 06:02:52;;;;;;;2.97;1.30;;;23.60;87.00;;;;;;5055348;28;20029;-52
2023/07/15 06:05:17;;;;;;;4.00;1.30;;;23.70;86.60;;;;;;5055708;28;20055;-52
2023/07/15 06:07:43;;;;;;;4.30;2.40;;;23.80;86.70;;;;;;5054965;28;20029;-51
2023/07/15 06:10:09;;;;;;;5.72;1.88;;;23.90;86.90;;;;;;5055267;28;20094;-50
2023/07/15 06:12:34;;;;;;;3.05;1.75;;;23.90;87.40;;;;;;5055023;28;20167;-49
2023/07/15 06:15:00;;;;;;;1.40;1.10;;;24.00;86.70;;;;;;5054967;28;20029;-50
2023/07/15 06:17:26;;;;;;;4.43;2.40;;;24.10;85.90;;;;;;5054998;28;20032;-52
2023/07/15 06:19:51;;;;;;;9.15;4.78;;;24.20;86.40;;;;;;5055080;28;20033;-50
2023/07/15 06:22:17;;;;;;;3.78;1.60;;;24.30;85.90;;;;;;5054544;28;20037;-50
2023/07/15 06:24:44;;;;;;;4.03;2.05;;;24.40;85.20;;;;;;5036651;28;20056;-47
2023/07/15 06:27:10;;;;;;;3.63;1.48;;;24.50;85.30;;;;;;5053791;28;20389;-51
2023/07/15 06:29:36;;;;;;;6.22;2.80;;;24.60;85.70;;;;;;5054928;28;20033;-52
2023/07/15 06:32:01;;;;;;;2.20;1.70;;;24.70;85.20;;;;;;5054201;28;20109;-51
2023/07/15 06:34:27;;;;;;;2.50;1.45;;;24.80;85.20;;;;;;5054481;28;20060;-52
2023/07/15 06:36:53;;;;;;;3.35;1.55;;;24.80;85.10;;;;;;5054937;28;20551;-51
2023/07/15 06:39:19;;;;;;;3.53;1.30;;;24.90;84.80;;;;;;5054719;28;20465;-51
2023/07/15 06:41:44;;;;;;;2.30;1.20;;;24.90;84.60;;;;;;5054139;28;20051;-49
2023/07/15 06:44:10;;;;;;;2.53;1.42;;;25.00;84.50;;;;;;5054363;28;20155;-51
2023/07/15 06:46:35;;;;;;;2.50;1.40;;;25.10;85.00;;;;;;5054662;28;20493;-50
2023/07/15 06:49:01;;;;;;;1.85;1.20;;;25.20;84.00;;;;;;5053923;28;20033;-52
2023/07/15 06:51:27;;;;;;;3.53;1.20;;;25.30;83.20;;;;;;5054175;28;20120;-50
2023/07/15 06:53:52;;;;;;;6.88;1.60;;;25.40;83.00;;;;;;5036331;28;20059;-47
2023/07/15 06:56:18;;;;;;;2.53;1.48;;;25.50;83.20;;;;;;5053933;28;20024;-52
2023/07/15 06:58:44;;;;;;;2.65;1.40;;;25.60;83.10;;;;;;5054289;28;20115;-52
2023/07/15 07:01:09;;;;;;;3.17;1.73;;;25.70;82.70;;;;;;5054084;28;20071;-51
2023/07/15 07:03:35;;;;;;;2.85;1.30;;;25.80;82.70;;;;;;5054214;28;20128;-52
2023/07/15 07:06:01;;;;;;;2.35;1.45;;;25.90;82.50;;;;;;5053856;28;20112;-51
2023/07/15 07:08:27;;;;;;;2.72;1.40;;;26.10;81.80;;;;;;5053855;28;20098;-53
2023/07/15 07:10:53;;;;;;;2.72;1.20;;;26.20;82.00;;;;;;5053615;28;20120;-53
2023/07/15 07:13:19;;;;;;;4.13;1.15;;;26.30;81.80;;;;;;5053606;28;20024;-49
2023/07/15 07:15:45;;;;;;;2.17;1.17;;;26.30;81.70;;;;;;5054036;28;20537;-48
2023/07/15 07:18:11;;;;;;;2.63;1.42;;;26.40;81.70;;;;;;5054081;28;20420;-49
2023/07/15 07:20:38;;;;;;;2.05;1.33;;;26.50;81.80;;;;;;5036177;28;20267;-48
2023/07/15 07:23:04;;;;;;;4.13;1.45;;;26.60;82.00;;;;;;5053614;28;20028;-53
2023/07/15 07:25:29;;;;;;;1.73;1.20;;;26.60;81.70;;;;;;5053643;28;20088;-52
2023/07/15 07:27:55;;;;;;;2.53;1.10;;;26.60;81.40;;;;;;5053643;28;20021;-52
2023/07/15 07:30:21;;;;;;;2.58;1.73;;;26.50;81.50;;;;;;5053720;28;20021;-52
2023/07/15 07:32:46;;;;;;;3.90;1.52;;;26.40;82.10;;;;;;5053235;28;20060;-52
2023/07/15 07:35:12;;;;;;;2.40;1.20;;;26.30;82.10;;;;;;5053274;28;20063;-53
2023/07/15 07:37:37;;;;;;;2.50;1.20;;;26.20;82.40;;;;;;5053260;28;20033;-52
2023/07/15 07:40:04;;;;;;;2.67;1.50;;;26.10;82.60;;;;;;5035793;28;20029;-52
2023/07/15 07:42:29;;;;;;;1.42;0.90;;;26.00;83.00;;;;;;5053465;28;20025;-52
2023/07/15 07:44:55;;;;;;;1.77;1.00;;;26.00;83.50;;;;;;5053346;28;20086;-52
2023/07/15 07:47:21;;;;;;;3.97;1.05;;;26.00;83.60;;;;;;5053620;28;20433;-52
2023/07/15 07:49:46;;;;;;;2.95;1.10;;;26.00;83.60;;;;;;5036030;28;20040;-51
2023/07/15 07:52:12;;;;;;;1.58;1.00;;;26.00;83.70;;;;;;5053205;28;20025;-52
2023/07/15 07:54:39;;;;;;;2.58;1.50;;;26.10;83.70;;;;;;5053109;28;20043;-53
2023/07/15 07:57:05;;;;;;;4.90;1.00;;;26.10;83.10;;;;;;5035766;28;20025;-53
2023/07/15 07:59:31;;;;;;;2.83;1.30;;;26.20;83.50;;;;;;5053437;28;20025;-52
2023/07/15 08:01:56;;;;;;;4.35;2.25;;;26.30;83.70;;;;;;5053279;28;20037;-51
2023/07/15 08:04:22;;;;;;;2.65;1.42;;;26.40;84.30;;;;;;5053616;28;20040;-53
2023/07/15 08:06:48;;;;;;;1.85;1.05;;;26.40;84.30;;;;;;5053276;28;20125;-50
2023/07/15 08:09:14;;;;;;;1.75;1.20;;;26.40;83.80;;;;;;5053170;28;20040;-53
2023/07/15 08:11:42;;;;;;;2.88;1.35;;;26.40;83.70;;;;;;5053405;28;20554;-49
2023/07/15 08:14:08;;;;;;;2.30;1.30;;;26.30;84.10;;;;;;5053208;28;20371;-53
2023/07/15 08:16:36;;;;;;;4.78;1.95;;;26.40;83.90;;;;;;5052537;28;20036;-47
2023/07/15 08:19:02;;;;;;;2.80;1.83;;;26.50;83.50;;;;;;5052629;28;20028;-53
2023/07/15 08:21:28;;;;;;;3.22;1.45;;;26.50;83.10;;;;;;5052864;28;20033;-52
2023/07/15 08:23:55;;;;;;;2.80;1.33;;;26.70;82.30;;;;;;5052699;28;20029;-50
2023/07/15 08:26:21;;;;;;;1.73;1.13;;;26.70;82.80;;;;;;5034808;28;20048;-49
2023/07/15 08:28:47;;;;;;;3.92;1.77;;;26.90;82.30;;;;;;5052971;28;20048;-51
2023/07/15 08:31:12;;;;;;;2.63;1.20;;;27.10;80.30;;;;;;5052710;28;20033;-51
2023/07/15 08:33:38;;;;;;;3.15;1.50;;;27.10;80.30;;;;;;5052155;28;20063;-52
2023/07/15 08:36:04;;;;;;;3.80;1.80;;;27.00;80.70;;;;;;5052450;28;20549;-51
2023/07/15 08:38:31;;;;;;;2.58;1.55;;;27.10;80.60;;;;;;5035142;28;20497;-49
2023/07/15 08:40:59;;;;;;;3.33;1.73;;;27.10;80.40;;;;;;5034741;28;20116;-50
2023/07/15 08:43:25;;;;;;;;;;;27.10;80.30;;;;;;5053106;28;20033;-53
2023/07/15 08:45:54;;;;;;;4.03;1.85;;;27.00;80.60;;;;;;5035356;28;20121;-52
2023/07/15 08:48:20;;;;;;;2.97;1.42;;;26.90;81.50;;;;;;5052790;28;20025;-53
2023/07/15 08:50:46;;;;;;;2.65;1.60;;;27.00;82.20;;;;;;5055656;28;20036;-51
2023/07/15 08:53:14;;;;;;;6.50;1.50;;;26.90;82.60;;;;;;5056375;28;20029;-48
2023/07/15 08:55:41;;;;;;;2.20;1.20;;;26.90;81.90;;;;;;5056741;28;20036;-49
2023/07/15 08:58:07;;;;;;;3.03;1.45;;;26.80;82.20;;;;;;5057157;28;21088;-50
2023/07/15 09:00:33;;;;;;;1.83;1.10;;;26.70;82.80;;;;;;5056781;28;20037;-50
2023/07/15 09:02:59;;;;;;;1.60;1.02;;;26.70;83.30;;;;;;5056384;28;20378;-50
2023/07/15 09:05:24;;;;;;;2.28;1.17;;;26.60;83.90;;;;;;5056597;28;20021;-50
2023/07/15 09:07:56;;;;;;;2.35;1.17;;;26.50;84.30;;;;;;5057026;28;20494;-51
2023/07/15 09:10:21;;;;;;;1.98;1.13;;;26.40;85.40;;;;;;5038847;28;20532;-49
2023/07/15 09:12:52;;;;;;;3.17;1.10;;;26.40;86.20;;;;;;5055675;28;20029;-48
2023/07/15 09:15:18;;;;;;;2.55;1.50;;;26.30;86.30;;;;;;5055727;28;20056;-49
2023/07/15 09:17:55;;;;;;;3.90;1.10;;;26.20;87.10;;;;;;5038442;28;20028;-51
2023/07/15 09:20:21;;;;;;;2.38;1.30;;;26.10;88.30;;;;;;5056310;28;20029;-51
2023/07/15 09:23:05;;;;;;;1.83;1.10;;;26.00;88.80;;;;;;5055808;28;20028;-52
2023/07/15 09:25:31;;;;;;;5.40;1.15;;;25.90;89.20;;;;;;5056130;28;20025;-52
2023/07/15 09:27:57;;;;;;;3.65;1.30;;;25.60;90.90;;;;;;5056316;28;20461;-53
2023/07/15 09:30:23;;;;;;;3.97;1.35;;;25.20;92.10;;;;;;5056229;28;20037;-50
2023/07/15 09:32:49;;;;;;;2.72;1.48;;;24.90;93.30;;;;;;5055664;28;20032;-51
2023/07/15 09:35:15;;;;;;;1.98;0.90;;;24.60;94.80;;;;;;5055548;28;20390;-50
2023/07/15 09:37:40;;;;;;;2.80;1.33;;;24.20;96.30;;;;;;5055693;28;20029;-48
2023/07/15 09:40:08;;;;;;;3.13;1.20;;;23.90;97.60;;;;;;5038418;28;20033;-52
2023/07/15 09:42:49;;;;;;;1.77;1.08;;;23.70;99.00;;;;;;5055932;28;20037;-52
2023/07/15 09:45:34;;;;;;;3.25;1.40;;;23.50;99.90;;;;;;5055793;28;20486;-53
2023/07/15 09:48:05;;;;;;;3.13;1.02;;;23.20;99.90;;;;;;5038039;28;20033;-50
2023/07/15 09:50:33;;;;;;;2.03;1.20;;;23.00;99.90;;;;;;5055888;28;20119;-46
2023/07/15 09:52:59;;;;;;;2.55;1.45;;;23.00;99.90;;;;;;5037134;28;20048;-51
2023/07/15 09:55:27;;;;;;;2.58;1.20;;;22.70;99.90;;;;;;5056003;28;20037;-53
2023/07/15 09:58:23;;;;;;;4.55;1.88;;;22.50;99.90;;;;;;5055899;28;20103;-53
2023/07/15 10:01:03;;;;;;;2.78;0.98;;;22.50;99.90;;;;;;5056019;28;20112;-50
2023/07/15 10:03:43;;;;;;;2.72;1.30;;;22.30;99.90;;;;;;5055630;28;20044;-52
2023/07/15 10:06:10;;;;;;;2.67;1.30;;;22.10;99.90;;;;;;5055137;28;20098;-52
2023/07/15 10:08:37;;;;;;;3.28;1.73;;;21.80;99.90;;;;;;5055543;28;20075;-51
2023/07/15 10:11:04;;;;;;;3.33;1.20;;;21.70;99.90;;;;;;5055950;28;20112;-48
2023/07/15 10:13:30;;;;;;;2.78;1.58;;;21.60;99.90;;;;;;5055277;28;20128;-50
2023/07/15 10:15:56;;;;;;;2.47;1.67;;;21.40;99.90;;;;;;5055366;28;20056;-52
2023/07/15 10:18:22;;;;;;;2.40;1.63;;;21.40;99.90;;;;;;5055471;28;20029;-48
2023/07/15 10:21:00;;;;;;;2.92;1.50;;;21.40;99.90;;;;;;5054998;28;20033;-50
2023/07/15 10:23:30;;;;;;;;;;;21.30;99.90;;;;;;5055243;28;20078;-51
2023/07/15 10:26:06;;;;;;;4.03;1.45;;;21.40;99.90;;;;;;5055354;28;19955;-51
2023/07/15 10:28:36;;;;;;;3.75;1.70;;;21.40;99.90;;;;;;5055225;28;20028;-50
2023/07/15 10:31:15;;;;;;;3.10;1.75;;;21.50;99.90;;;;;;5054841;28;20032;-50
2023/07/15 10:33:55;;;;;;;5.00;1.80;;;21.60;99.90;;;;;;5054946;28;20553;-53
2023/07/15 10:36:40;;;;;;;3.85;1.40;;;21.70;99.90;;;;;;5037218;28;20092;-53
2023/07/15 10:39:10;;;;;;;4.80;1.73;;;21.70;99.90;;;;;;5056051;28;20052;-52
2023/07/15 10:41:41;;;;;;;5.82;2.60;;;21.60;99.90;;;;;;5055131;28;20030;-51
2023/07/15 10:44:19;;;;;;;3.10;1.73;;;21.70;99.90;;;;;;5054967;28;20032;-50
2023/07/15 10:47:05;;;;;;;4.63;2.15;;;21.90;99.90;;;;;;5054850;28;20397;-48
2023/07/15 10:49:31;;;;;;;2.75;1.75;;;22.10;99.90;;;;;;5036307;28;20336;-51
2023/07/15 10:51:58;;;;;;;2.25;1.40;;;22.30;99.90;;;;;;5054672;28;20055;-50
2023/07/15 10:54:27;;;;;;;3.22;1.83;;;22.30;99.90;;;;;;5054489;28;20036;-52
2023/07/15 10:56:53;;;;;;;3.47;1.80;;;22.50;99.90;;;;;;5054782;28;20091;-53
2023/07/15 10:59:23;;;;;;;3.88;1.52;;;22.60;99.90;;;;;;5054575;28;20596;-53
2023/07/15 11:01:48;;;;;;;5.25;1.50;;;22.60;99.90;;;;;;5054067;28;20032;-52
2023/07/15 11:04:18;;;;;;;2.60;1.60;;;22.70;99.90;;;;;;5053842;28;20120;-50
2023/07/15 11:06:44;;;;;;;2.78;1.70;;;22.80;99.90;;;;;;5054492;28;20128;-51
2023/07/15 11:09:20;;;;;;;4.75;1.60;;;23.00;99.90;;;;;;5054251;28;20114;-51
2023/07/15 11:11:47;;;;;;;2.15;1.50;;;23.10;99.90;;;;;;5054549;28;20632;-53
2023/07/15 11:14:22;;;;;;;3.42;1.40;;;23.20;99.90;;;;;;5053844;28;20072;-51
2023/07/15 11:17:07;;;;;;;2.80;1.70;;;23.30;99.90;;;;;;5054092;28;20029;-53
2023/07/15 11:19:32;;;;;;;2.75;1.60;;;23.40;99.90;;;;;;5053499;28;20040;-48
2023/07/15 11:21:59;;;;;;;4.18;1.45;;;23.50;99.90;;;;;;5036103;28;20029;-53
2023/07/15 11:24:27;;;;;;;5.85;1.73;;;23.40;99.90;;;;;;5053802;28;20035;-51
2023/07/15 11:26:53;;;;;;;3.40;1.88;;;23.50;99.90;;;;;;5053282;28;20040;-49
2023/07/15 11:29:23;;;;;;;3.72;1.90;;;23.50;99.90;;;;;;5053950;28;20079;-50
2023/07/15 11:31:54;;;;;;;3.50;1.70;;;23.70;99.90;;;;;;5053870;28;20040;-50
2023/07/15 11:34:22;;;;;;;4.10;1.45;;;23.80;99.90;;;;;;5053475;28;20079;-52
2023/07/15 11:36:49;;;;;;;3.80;1.73;;;23.80;99.90;;;;;;5035694;28;20040;-48
2023/07/15 11:39:15;;;;;;;2.83;1.50;;;23.80;99.90;;;;;;5053889;28;20021;-52
2023/07/15 11:41:41;;;;;;;2.72;1.60;;;23.90;99.90;;;;;;5052947;28;20032;-51
2023/07/15 11:44:10;;;;;;;2.92;1.70;;;24.00;99.90;;;;;;5053684;28;20029;-50
2023/07/15 11:46:36;;;;;;;;;;;23.90;99.90;;;;;;5054075;28;20486;-48
2023/07/15 11:49:03;;;;;;;3.03;1.60;;;23.90;99.90;;;;;;5053197;28;19948;-51
2023/07/15 11:51:32;;;;;;;3.47;1.92;;;23.70;99.90;;;;;;5053168;28;20040;-51
2023/07/15 11:53:58;;;;;;;3.63;1.90;;;23.60;99.90;;;;;;5053149;28;20041;-51
2023/07/15 11:56:36;;;;;;;3.67;1.83;;;23.60;99.90;;;;;;5053366;28;20465;-52
2023/07/15 11:59:04;;;;;;;2.95;1.70;;;23.60;99.90;;;;;;5053374;28;20036;-53
2023/07/15 12:01:30;;;;;;;3.25;1.77;;;23.60;99.90;;;;;;5053237;28;20037;-53
2023/07/15 12:03:55;;;;;;;3.03;1.98;;;23.70;99.90;;;;;;5053109;28;20021;-52
2023/07/15 12:06:28;;;;;;;2.60;1.63;;;23.90;99.90;;;;;;5035336;28;20485;-53
2023/07/15 12:09:09;;;;;;;3.45;1.52;;;24.00;99.90;;;;;;5035478;28;20031;-52
2023/07/15 12:11:35;;;;;;;3.38;2.22;;;24.10;99.90;;;;;;5053020;28;20029;-53
2023/07/15 12:14:02;;;;;;;3.25;1.83;;;24.10;99.90;;;;;;5053241;28;20033;-51
2023/07/15 12:16:29;;;;;;;3.33;1.80;;;24.10;99.90;;;;;;5053133;28;20520;-53
2023/07/15 12:18:56;;;;;;;5.65;2.20;;;24.00;99.90;;;;;;5053075;28;20025;-53
2023/07/15 12:21:22;;;;;;;2.30;1.45;;;24.10;99.90;;;;;;5052958;28;20420;-52
2023/07/15 12:23:50;;;;;;;3.42;1.52;;;24.00;99.90;;;;;;5053262;28;20086;-53
2023/07/15 12:26:17;;;;;;;2.63;1.63;;;24.00;99.90;;;;;;5038200;28;20037;-53
2023/07/15 12:28:43;;;;;;;4.80;2.05;;;24.00;99.90;;;;;;5057463;28;20447;-52
2023/07/15 12:31:08;;;;;;;2.22;1.50;;;24.00;99.90;;;;;;5057733;28;20074;-52
2023/07/15 12:33:35;;;;;;;2.53;1.40;;;24.00;99.90;;;;;;5057084;28;20024;-52
2023/07/15 12:36:02;;;;;;;2.72;1.48;;;24.10;99.90;;;;;;5056763;28;20489;-52
2023/07/15 12:38:28;;;;;;;2.40;1.48;;;24.10;99.90;;;;;;5056898;28;20061;-53
2023/07/15 12:40:54;;;;;;;3.47;1.55;;;24.20;99.90;;;;;;5057124;28;20470;-52
2023/07/15 12:43:23;;;;;;;3.30;2.03;;;24.30;99.90;;;;;;5057144;28;20039;-53
2023/07/15 12:45:50;;;;;;;4.10;1.65;;;24.30;99.90;;;;;;5056563;28;20044;-53
2023/07/15 12:48:16;;;;;;;2.10;1.30;;;24.40;99.90;;;;;;5056995;28;20056;-53
2023/07/15 12:50:42;;;;;;;3.10;1.65;;;24.50;99.90;;;;;;5056529;28;20474;-52